Time;durP1;ratioP1;P1;durP2;ratioP2;P2;SDS_P1;SDS_P2;PMS_P1;PMS_P2;Temp;Humidity;BMP_temperature;BMP_pressure;BME280_temperature;BME280_humidity;BME280_pressure;Samples;Min_cycle;Max_cycle;Signal;HPM_P1;HPM_P2
2021/07/18 00:02:03;;;;;;;4.07;1.85;;;;;;;23.24;53.59;102647.94;5020193;28;20033;-82
2021/07/18 00:04:30;;;;;;;2.78;1.83;;;;;;;23.23;53.68;102645.31;5036682;28;20029;-81
2021/07/18 00:06:55;;;;;;;4.28;2.10;;;;;;;23.23;53.62;102634.81;5053641;28;20082;-81
2021/07/18 00:09:20;;;;;;;4.65;2.10;;;;;;;23.23;53.68;102637.44;5020646;28;20028;-82
2021/07/18 00:11:46;;;;;;;4.28;1.80;;;;;;;23.23;53.53;102640.06;5036700;28;20052;-80
2021/07/18 00:14:12;;;;;;;3.15;1.90;;;;;;;23.24;53.69;102639.19;5036876;28;20021;-80
2021/07/18 00:16:38;;;;;;;2.50;1.80;;;;;;;23.22;53.42;102643.59;5055266;28;20021;-83
2021/07/18 00:19:05;;;;;;;2.47;1.70;;;;;;;23.22;53.68;102649.69;5037482;28;20440;-80
2021/07/18 00:21:31;;;;;;;3.40;1.98;;;;;;;23.20;53.53;102649.69;5038090;28;20028;-79
2021/07/18 00:23:57;;;;;;;3.40;1.98;;;;;;;23.20;53.47;102641.81;5038427;28;20061;-82
2021/07/18 00:26:22;;;;;;;3.65;1.95;;;;;;;23.18;53.63;102640.94;5054738;28;20048;-81
2021/07/18 00:28:48;;;;;;;3.13;1.70;;;;;;;23.18;53.79;102635.69;5023215;28;20494;-82
2021/07/18 00:31:13;;;;;;;2.47;1.70;;;;;;;23.18;53.48;102626.94;5052732;28;20040;-81
2021/07/18 00:33:39;;;;;;;5.80;1.77;;;;;;;23.18;53.64;102634.84;5035613;28;20522;-81
2021/07/18 00:36:05;;;;;;;3.28;1.90;;;;;;;23.18;53.49;102638.31;5035426;28;20071;-81
2021/07/18 00:38:30;;;;;;;3.22;1.90;;;;;;;23.18;53.38;102630.44;5051985;28;20025;-81
2021/07/18 00:40:56;;;;;;;3.38;1.80;;;;;;;23.17;53.85;102633.97;5055348;28;20020;-81
2021/07/18 00:43:22;;;;;;;3.42;1.70;;;;;;;23.17;53.85;102639.22;5055997;28;20029;-80
2021/07/18 00:45:47;;;;;;;3.08;1.90;;;;;;;23.16;53.37;102636.59;5057235;28;20475;-81
2021/07/18 00:48:12;;;;;;;2.28;1.80;;;;;;;23.16;53.82;102629.56;5055858;28;20387;-79
2021/07/18 00:50:43;;;;;;;3.70;1.67;;;;;;;23.15;53.72;102627.84;5057323;28;20028;-81
2021/07/18 00:53:12;;;;;;;2.85;1.90;;;;;;;23.18;53.50;102632.22;5055938;28;20021;-80
2021/07/18 00:55:42;;;;;;;3.25;1.70;;;;;;;23.19;53.80;102632.22;5039442;28;20058;-79
2021/07/18 00:58:08;;;;;;;3.05;1.80;;;;;;;23.18;53.32;102627.81;5055733;28;20029;-79
2021/07/18 01:00:34;;;;;;;3.15;1.85;;;;;;;23.18;53.67;102626.94;5055844;28;20025;-80
2021/07/18 01:03:00;;;;;;;3.60;1.90;;;;;;;23.17;53.64;102628.72;5038823;28;20048;-80
2021/07/18 01:05:26;;;;;;;4.68;1.80;;;;;;;23.16;53.80;102636.59;5056697;28;20068;-79
2021/07/18 01:07:51;;;;;;;2.20;1.52;;;;;;;23.16;53.63;102631.34;5055626;28;20131;-79
2021/07/18 01:10:17;;;;;;;2.60;1.60;;;;;;;23.18;53.58;102626.94;5039478;28;20119;-79
2021/07/18 01:12:42;;;;;;;2.63;1.58;;;;;;;23.18;53.44;102625.19;5055599;28;20029;-79
2021/07/18 01:15:09;;;;;;;2.83;1.73;;;;;;;23.18;53.73;102625.19;5038797;28;20475;-80
2021/07/18 01:17:36;;;;;;;2.45;1.67;;;;;;;23.17;53.86;102623.47;5022399;28;20116;-79
2021/07/18 01:20:04;;;;;;;2.75;1.45;;;;;;;23.17;53.61;102623.47;5055429;28;20025;-80
2021/07/18 01:22:30;;;;;;;3.95;1.90;;;;;;;23.17;53.70;102620.84;5055391;28;20089;-80
2021/07/18 01:24:56;;;;;;;2.58;1.58;;;;;;;23.17;53.55;102618.22;5022075;28;20503;-79
2021/07/18 01:27:25;;;;;;;2.25;1.67;;;;;;;23.15;53.70;102616.47;5038710;28;20040;-80
2021/07/18 01:29:50;;;;;;;2.70;1.88;;;;;;;23.14;53.87;102615.56;5022528;28;20542;-80
2021/07/18 01:32:16;;;;;;;3.20;1.85;;;;;;;23.14;53.75;102614.72;5038532;28;20174;-79
2021/07/18 01:34:41;;;;;;;3.42;1.70;;;;;;;23.10;53.72;102612.97;5021921;28;20029;-80
2021/07/18 01:37:07;;;;;;;2.92;1.50;;;;;;;23.12;53.67;102612.09;5038380;28;20059;-80
2021/07/18 01:39:32;;;;;;;3.15;1.90;;;;;;;23.11;53.76;102609.50;5054985;28;20372;-79
2021/07/18 01:41:59;;;;;;;2.60;1.70;;;;;;;23.12;53.82;102608.59;5054968;28;20082;-80
2021/07/18 01:44:24;;;;;;;2.97;1.52;;;;;;;23.15;53.82;102603.34;5055172;28;20033;-79
2021/07/18 01:46:51;;;;;;;2.78;1.60;;;;;;;23.16;53.60;102600.69;5038311;28;20033;-79
2021/07/18 01:49:16;;;;;;;2.63;1.70;;;;;;;23.16;53.88;102605.06;5055322;28;20506;-80
2021/07/18 01:51:42;;;;;;;3.58;1.42;;;;;;;23.15;53.38;102603.34;5037780;28;20029;-80
2021/07/18 01:54:09;;;;;;;2.70;1.65;;;;;;;23.12;53.81;102600.72;5038157;28;20494;-79
2021/07/18 01:56:35;;;;;;;3.70;1.70;;;;;;;23.13;53.55;102605.09;5054800;28;20029;-80
2021/07/18 01:59:00;;;;;;;3.38;1.50;;;;;;;23.13;53.68;102605.09;5038158;28;20033;-80
2021/07/18 02:01:28;;;;;;;2.95;1.50;;;;;;;23.11;53.92;102601.59;5056064;28;20087;-82
2021/07/18 02:03:55;;;;;;;4.00;1.77;;;;;;;23.11;53.78;102597.22;5054270;28;20037;-80
2021/07/18 02:06:22;;;;;;;3.08;1.70;;;;;;;23.10;53.58;102600.72;5054627;28;20078;-79
2021/07/18 02:08:52;;;;;;;2.05;1.50;;;;;;;23.10;53.82;102597.22;5055001;28;20036;-80
2021/07/18 02:11:18;;;;;;;2.70;1.52;;;;;;;23.10;54.00;102597.22;5037793;28;20036;-80
2021/07/18 02:13:52;;;;;;;2.55;1.50;;;;;;;23.10;53.58;102598.09;5037974;28;20038;-80
2021/07/18 02:16:19;;;;;;;2.03;1.30;;;;;;;23.10;53.63;102605.97;5054097;28;20467;-79
2021/07/18 02:18:48;;;;;;;2.50;1.60;;;;;;;23.10;53.61;102603.34;5054196;28;20547;-80
2021/07/18 02:21:15;;;;;;;2.22;1.40;;;;;;;23.10;53.91;102597.22;5055469;28;20025;-79
2021/07/18 02:23:41;;;;;;;2.33;1.40;;;;;;;23.10;53.76;102597.22;5053837;28;20040;-79
2021/07/18 02:26:06;;;;;;;1.92;1.30;;;;;;;23.09;53.97;102593.72;5054146;28;20383;-80
2021/07/18 02:28:32;;;;;;;1.95;1.42;;;;;;;23.09;53.76;102595.50;5054303;28;20133;-79
2021/07/18 02:30:58;;;;;;;2.38;1.35;;;;;;;23.07;53.78;102592.88;5037413;28;20032;-81
2021/07/18 02:33:23;;;;;;;2.58;1.40;;;;;;;23.07;53.98;102590.25;5021056;28;20120;-80
2021/07/18 02:35:49;;;;;;;4.07;1.73;;;;;;;23.05;54.04;102586.75;5037315;28;20036;-81
2021/07/18 02:38:15;;;;;;;2.50;1.50;;;;;;;23.05;53.89;102586.75;5054021;28;20021;-81
2021/07/18 02:40:40;;;;;;;2.55;1.42;;;;;;;23.06;53.74;102587.59;5054124;28;20025;-80
2021/07/18 02:43:06;;;;;;;3.15;1.40;;;;;;;23.05;53.71;102586.75;5020652;28;20025;-79
2021/07/18 02:45:32;;;;;;;2.30;1.35;;;;;;;23.05;53.94;102589.38;5070455;28;20502;-80
2021/07/18 02:47:57;;;;;;;1.80;1.50;;;;;;;23.07;53.65;102578.88;5053881;28;20032;-79
2021/07/18 02:50:30;;;;;;;2.47;1.30;;;;;;;23.06;53.67;102584.97;5020760;28;20422;-80
2021/07/18 02:52:55;;;;;;;2.15;1.50;;;;;;;23.06;53.79;102580.63;5053669;28;20031;-79
2021/07/18 02:55:21;;;;;;;2.33;1.50;;;;;;;23.06;53.79;102572.75;5053642;28;20112;-80
2021/07/18 02:57:47;;;;;;;2.70;1.40;;;;;;;23.07;53.45;102577.09;5053456;28;20029;-79
2021/07/18 03:00:15;;;;;;;3.35;1.20;;;;;;;23.07;53.48;102571.84;5053636;28;20051;-81
2021/07/18 03:02:41;;;;;;;2.78;1.35;;;;;;;23.08;53.53;102577.97;5052744;28;20025;-80
2021/07/18 03:05:07;;;;;;;2.28;1.25;;;;;;;23.08;53.69;102578.88;5053030;28;20384;-79
2021/07/18 03:07:33;;;;;;;2.47;1.50;;;;;;;23.08;53.92;102572.72;5053673;28;20036;-80
2021/07/18 03:09:58;;;;;;;1.90;1.17;;;;;;;23.07;53.77;102569.22;5053559;28;20032;-80
2021/07/18 03:12:24;;;;;;;1.92;1.30;;;;;;;23.07;53.72;102571.00;5036670;28;20493;-80
2021/07/18 03:14:49;;;;;;;2.53;1.35;;;;;;;23.06;54.00;102572.75;5036444;28;20024;-80
2021/07/18 03:17:14;;;;;;;2.28;1.30;;;;;;;23.06;53.63;102564.88;5036283;28;20033;-79
2021/07/18 03:19:40;;;;;;;2.58;1.60;;;;;;;23.06;53.80;102566.59;5019935;28;20037;-77
2021/07/18 03:22:05;;;;;;;2.08;1.40;;;;;;;23.06;53.58;102567.50;5019919;28;20048;-79
2021/07/18 03:24:31;;;;;;;2.70;1.23;;;;;;;23.05;53.82;102563.13;5052785;28;20032;-78
2021/07/18 03:26:56;;;;;;;3.22;1.35;;;;;;;23.06;53.77;102559.63;5019830;28;20029;-77
2021/07/18 03:29:22;;;;;;;2.90;1.20;;;;;;;23.06;53.63;102571.84;5052905;28;20167;-77
2021/07/18 03:31:47;;;;;;;1.83;1.38;;;;;;;23.06;53.74;102567.50;5036094;28;20444;-77
2021/07/18 03:34:12;;;;;;;2.00;1.30;;;;;;;23.06;53.68;102570.13;5036291;28;20044;-78
2021/07/18 03:36:38;;;;;;;1.65;1.30;;;;;;;23.06;53.74;102574.47;5052874;28;20423;-77
2021/07/18 03:39:04;;;;;;;2.50;1.38;;;;;;;23.06;53.71;102571.84;5052655;28;20029;-77
2021/07/18 03:41:30;;;;;;;2.30;1.17;;;;;;;23.05;53.80;102567.50;5036109;28;20056;-77
2021/07/18 03:43:56;;;;;;;2.50;1.33;;;;;;;23.06;53.66;102569.22;5053974;28;20067;-77
2021/07/18 03:46:21;;;;;;;2.33;1.33;;;;;;;23.05;53.81;102563.13;5019769;28;20048;-77
2021/07/18 03:48:47;;;;;;;1.60;1.20;;;;;;;23.06;53.78;102566.59;5052820;28;20025;-77
2021/07/18 03:51:12;;;;;;;2.08;1.30;;;;;;;23.07;53.72;102568.38;5035909;28;20120;-77
2021/07/18 03:53:37;;;;;;;2.08;1.48;;;;;;;23.07;53.67;102566.59;5036295;28;20427;-77
2021/07/18 03:56:03;;;;;;;2.60;1.30;;;;;;;23.05;53.76;102565.75;5035924;28;20391;-77
2021/07/18 03:58:29;;;;;;;2.53;1.42;;;;;;;23.04;53.75;102565.75;5035896;28;20036;-77
2021/07/18 04:00:54;;;;;;;2.38;1.40;;;;;;;23.04;53.67;102566.63;5035982;28;20087;-77
2021/07/18 04:03:19;;;;;;;1.90;1.30;;;;;;;23.03;53.82;102567.50;5052890;28;20025;-77
2021/07/18 04:05:45;;;;;;;2.28;1.35;;;;;;;23.04;53.90;102574.50;5038232;28;20466;-77
2021/07/18 04:08:10;;;;;;;1.65;1.33;;;;;;;23.04;53.92;102565.75;5037271;28;20035;-76
2021/07/18 04:10:35;;;;;;;2.53;1.52;;;;;;;23.05;54.09;102572.75;5054558;28;20025;-77
2021/07/18 04:13:01;;;;;;;2.85;1.50;;;;;;;23.06;53.59;102569.22;5054005;28;20471;-77
2021/07/18 04:15:27;;;;;;;1.75;1.20;;;;;;;23.07;53.97;102571.00;5053705;28;20388;-78
2021/07/18 04:17:52;;;;;;;2.17;1.20;;;;;;;23.07;53.66;102568.38;5052159;28;20036;-77
2021/07/18 04:20:18;;;;;;;2.20;1.20;;;;;;;23.07;53.85;102571.84;5035678;28;20538;-78
2021/07/18 04:22:43;;;;;;;2.38;1.50;;;;;;;23.06;53.77;102570.13;5052188;28;20043;-77
2021/07/18 04:25:10;;;;;;;2.85;1.60;;;;;;;23.07;53.58;102568.38;5055487;28;20057;-78
2021/07/18 04:27:36;;;;;;;2.53;1.33;;;;;;;23.07;53.64;102563.97;5035420;28;20545;-77
2021/07/18 04:30:06;;;;;;;3.13;1.40;;;;;;;23.08;53.72;102565.75;5052049;28;20032;-78
2021/07/18 04:32:31;;;;;;;2.67;1.40;;;;;;;23.08;53.54;102563.13;5051845;28;20017;-78
2021/07/18 04:34:57;;;;;;;2.10;1.20;;;;;;;23.07;53.71;102561.34;5053014;28;20021;-79
2021/07/18 04:37:22;;;;;;;1.85;1.30;;;;;;;23.11;53.77;102564.84;5052091;28;20040;-78
2021/07/18 04:39:47;;;;;;;2.10;1.35;;;;;;;23.12;53.50;102556.94;5035188;28;20037;-79
2021/07/18 04:42:13;;;;;;;2.35;1.20;;;;;;;23.13;53.48;102563.09;5035166;28;20036;-78
2021/07/18 04:44:38;;;;;;;2.33;1.40;;;;;;;23.13;53.34;102557.84;5035293;28;20037;-77
2021/07/18 04:47:04;;;;;;;3.67;1.50;;;;;;;23.13;53.67;102568.34;5035069;28;20025;-77
2021/07/18 04:49:29;;;;;;;2.65;1.42;;;;;;;23.14;53.52;102567.44;5068473;28;20044;-77
2021/07/18 04:51:55;;;;;;;1.60;1.30;;;;;;;23.14;53.53;102562.19;5052918;28;20033;-77
2021/07/18 04:54:21;;;;;;;1.80;1.38;;;;;;;23.15;53.65;102563.94;5051914;28;20024;-77
2021/07/18 04:56:47;;;;;;;2.17;1.17;;;;;;;23.16;53.38;102573.56;5051773;28;20029;-78
2021/07/18 04:59:12;;;;;;;3.28;1.60;;;;;;;23.18;53.48;102569.19;5051632;28;20163;-78
2021/07/18 05:01:38;;;;;;;1.70;1.33;;;;;;;23.20;53.31;102570.91;5035113;28;20063;-78
2021/07/18 05:04:03;;;;;;;1.80;1.35;;;;;;;23.25;53.49;102568.25;5052837;28;20429;-79
2021/07/18 05:06:29;;;;;;;4.07;1.40;;;;;;;23.30;53.05;102565.59;5051833;28;20638;-78
2021/07/18 05:08:54;;;;;;;2.65;1.30;;;;;;;23.37;53.08;102559.44;5053379;28;20082;-78
2021/07/18 05:11:20;;;;;;;2.42;1.52;;;;;;;23.41;52.73;102555.91;5035174;28;20479;-80
2021/07/18 05:13:46;;;;;;;2.65;1.50;;;;;;;23.46;52.86;102556.75;5051598;28;20021;-81
2021/07/18 05:16:12;;;;;;;2.20;1.55;;;;;;;23.51;52.62;102557.56;5052827;28;20036;-85
2021/07/18 05:18:38;;;;;;;2.30;1.50;;;;;;;23.52;52.69;102551.44;5035079;28;20095;-82
2021/07/18 05:21:03;;;;;;;1.95;1.50;;;;;;;23.53;52.70;102555.81;5051679;28;20418;-80
2021/07/18 05:23:29;;;;;;;2.38;1.55;;;;;;;23.56;52.88;102555.78;5051306;28;20095;-80
2021/07/18 05:25:54;;;;;;;2.78;1.58;;;;;;;23.59;52.67;102561.00;5034665;28;20553;-79
2021/07/18 05:28:20;;;;;;;2.75;1.38;;;;;;;23.62;52.98;102560.97;5038542;28;20555;-80
2021/07/18 05:30:45;;;;;;;2.55;1.90;;;;;;;23.64;52.81;102553.09;5038443;28;20021;-80
2021/07/18 05:33:11;;;;;;;1.92;1.55;;;;;;;23.66;52.70;102555.72;5054986;28;20035;-80
2021/07/18 05:35:36;;;;;;;2.88;1.80;;;;;;;23.68;53.02;102552.19;5038466;28;20450;-80
2021/07/18 05:38:03;;;;;;;3.50;1.67;;;;;;;23.71;52.46;102552.16;5054954;28;20037;-78
2021/07/18 05:40:28;;;;;;;2.22;1.50;;;;;;;23.73;52.54;102544.25;5021929;28;20051;-78
2021/07/18 05:42:53;;;;;;;2.42;1.48;;;;;;;23.74;52.58;102552.16;5056046;28;20475;-78
2021/07/18 05:45:19;;;;;;;2.17;1.77;;;;;;;23.76;52.63;102549.53;5056278;28;20345;-78
2021/07/18 05:47:45;;;;;;;2.67;2.00;;;;;;;23.78;52.85;102551.28;5056141;28;20059;-78
2021/07/18 05:50:11;;;;;;;2.42;1.45;;;;;;;23.81;52.82;102551.22;5056218;28;20039;-77
2021/07/18 05:52:37;;;;;;;1.88;1.40;;;;;;;23.85;52.65;102543.34;5056066;28;20032;-78
2021/07/18 05:55:05;;;;;;;2.10;1.50;;;;;;;23.88;52.66;102546.78;5054719;28;20379;-77
2021/07/18 05:57:30;;;;;;;2.03;1.50;;;;;;;23.91;52.58;102556.41;5054627;28;20060;-76
2021/07/18 05:59:55;;;;;;;2.22;1.30;;;;;;;23.94;52.20;102549.38;5054624;28;20464;-77
2021/07/18 06:02:21;;;;;;;2.28;1.50;;;;;;;23.95;52.23;102553.75;5037941;28;20032;-77
2021/07/18 06:04:46;;;;;;;2.42;1.30;;;;;;;23.96;52.57;102552.84;5054446;28;20033;-77
2021/07/18 06:07:12;;;;;;;2.95;1.58;;;;;;;23.97;52.45;102549.31;5037716;28;20029;-76
2021/07/18 06:09:37;;;;;;;2.13;1.35;;;;;;;24.00;52.20;102545.81;5055804;28;20147;-80
2021/07/18 06:12:03;;;;;;;2.53;1.55;;;;;;;24.04;52.36;102560.69;5055497;28;20112;-78
2021/07/18 06:14:29;;;;;;;13.85;3.25;;;;;;;23.97;52.08;102553.72;5055550;28;20021;-78
2021/07/18 06:16:54;;;;;;;9.45;2.78;;;;;;;23.88;52.15;102553.81;5054334;28;20079;-77
2021/07/18 06:19:19;;;;;;;17.95;3.53;;;;;;;23.88;52.47;102551.19;5037510;28;20029;-76
2021/07/18 06:21:45;;;;;;;23.08;3.28;;;;;;;23.86;52.03;102553.81;5054135;28;20029;-77
2021/07/18 06:24:10;;;;;;;14.00;3.10;;;;;;;23.84;52.39;102552.09;5053957;28;20036;-77
2021/07/18 06:26:36;;;;;;;7.25;2.28;;;;;;;23.83;52.17;102556.47;5020844;28;20380;-77
2021/07/18 06:29:02;;;;;;;6.15;2.60;;;;;;;23.84;52.38;102552.94;5055351;28;20055;-77
2021/07/18 06:31:28;;;;;;;4.25;2.22;;;;;;;23.83;52.35;102556.47;5054148;28;20035;-78
2021/07/18 06:33:53;;;;;;;10.63;2.00;;;;;;;23.85;52.48;102559.09;5037385;28;20040;-82
2021/07/18 06:36:19;;;;;;;7.93;2.47;;;;;;;23.82;52.09;102554.72;5037300;28;20028;-80
2021/07/18 06:38:47;;;;;;;7.50;1.70;;;;;;;23.81;52.22;102551.22;5053570;28;20387;-81
2021/07/18 06:41:13;;;;;;;4.22;1.77;;;;;;;23.86;52.11;102559.06;5037351;28;20033;-79
2021/07/18 06:43:38;;;;;;;4.40;1.73;;;;;;;23.82;51.93;102559.97;5053693;28;20102;-78
2021/07/18 06:46:04;;;;;;;2.55;1.50;;;;;;;23.70;51.88;102554.81;5053668;28;20464;-77
2021/07/18 06:48:29;;;;;;;4.53;1.85;;;;;;;23.59;52.05;102560.16;5054470;28;20020;-77
2021/07/18 06:50:56;;;;;;;7.13;1.90;;;;;;;23.52;51.77;102564.59;5054537;28;20479;-78
2021/07/18 06:53:23;;;;;;;4.18;1.80;;;;;;;23.56;51.58;102560.16;5055394;28;20025;-78
2021/07/18 06:55:49;;;;;;;6.47;1.80;;;;;;;23.45;52.07;102560.22;5055135;28;20024;-78
2021/07/18 06:58:14;;;;;;;4.00;1.67;;;;;;;23.41;51.36;102558.53;5053864;28;20029;-77
2021/07/18 07:00:40;;;;;;;4.15;1.70;;;;;;;23.33;51.78;102568.22;5037223;28;20433;-76
2021/07/18 07:03:05;;;;;;;5.80;2.00;;;;;;;23.34;51.77;102562.06;5054672;28;20029;-76
2021/07/18 07:05:30;;;;;;;5.43;1.73;;;;;;;23.48;51.04;102557.59;5054673;28;20037;-77
2021/07/18 07:07:56;;;;;;;5.88;1.73;;;;;;;23.63;51.29;102572.38;5055020;28;20124;-76
2021/07/18 07:10:21;;;;;;;4.00;1.70;;;;;;;23.78;51.07;102553.03;5053513;28;20021;-76
2021/07/18 07:12:48;;;;;;;5.10;1.67;;;;;;;23.78;50.60;102555.66;5036596;28;20032;-77
2021/07/18 07:15:14;;;;;;;2.53;1.75;;;;;;;23.70;50.94;102555.69;5054493;28;20047;-78
2021/07/18 07:17:39;;;;;;;3.83;1.98;;;;;;;23.74;51.24;102556.53;5053134;28;20025;-77
2021/07/18 07:20:08;;;;;;;16.38;2.20;;;;;;;23.94;52.13;102562.50;5036312;28;20029;-84
2021/07/18 07:22:36;;;;;;;9.95;3.03;;;;;;;23.97;51.07;102562.47;5053006;28;20457;-88
2021/07/18 07:25:10;;;;;;;8.38;2.78;;;;;;;23.97;51.06;102567.72;5036600;28;20045;-89
2021/07/18 07:27:36;;;;;;;4.88;2.33;;;;;;;23.84;50.67;102565.22;5036470;28;20140;-87
2021/07/18 07:30:10;;;;;;;8.60;2.35;;;;;;;23.78;50.91;102559.16;5053017;28;20047;-87
2021/07/18 07:32:36;;;;;;;7.18;2.58;;;;;;;23.74;51.08;102564.41;5052883;28;20475;-84
2021/07/18 07:35:04;;;;;;;8.98;2.40;;;;;;;23.73;50.49;102563.53;5036293;28;20025;-85
2021/07/18 07:37:31;;;;;;;12.13;2.67;;;;;;;23.99;50.88;102568.59;5069420;28;20044;-84
2021/07/18 07:39:57;;;;;;;9.55;2.55;;;;;;;24.01;50.72;102568.59;5036153;28;20102;-81
2021/07/18 07:42:23;;;;;;;8.73;2.40;;;;;;;23.95;54.29;102568.63;5052655;28;20390;-88
2021/07/18 07:44:48;;;;;;;13.40;2.70;;;;;;;23.73;53.80;102568.78;5036122;28;20075;-85
2021/07/18 07:47:15;;;;;;;9.25;2.55;;;;;;;23.62;56.76;102568.00;5036046;28;20428;-86
2021/07/18 07:49:43;;;;;;;9.40;2.50;;;;;;;23.56;55.87;102568.03;5052207;28;20064;-84
2021/07/18 07:52:09;;;;;;;12.35;2.25;;;;;;;23.47;56.08;102568.97;5052610;28;20115;-84
2021/07/18 07:54:34;;;;;;;6.88;2.25;;;;;;;23.38;55.10;102571.66;5053806;28;20074;-85
2021/07/18 07:57:00;;;;;;;6.40;1.85;;;;;;;23.26;54.80;102577.03;5052429;28;20028;-87
2021/07/18 07:59:25;;;;;;;7.40;2.10;;;;;;;23.38;56.01;102572.53;5035977;28;20120;-92
2021/07/18 08:01:53;;;;;;;5.95;2.17;;;;;;;23.57;57.45;102581.19;5052648;28;20020;-86
2021/07/18 08:04:19;;;;;;;8.77;2.10;;;;;;;23.68;57.73;102582.88;5035531;28;20043;-87
2021/07/18 08:06:44;;;;;;;7.53;1.70;;;;;;;23.53;58.88;102579.44;5051817;28;20399;-85
2021/07/18 08:09:10;;;;;;;5.63;2.00;;;;;;;23.45;57.06;102577.75;5035804;28;20025;-85
2021/07/18 08:11:36;;;;;;;4.20;1.92;;;;;;;23.55;56.55;102577.69;5069027;28;20031;-86
2021/07/18 08:14:01;;;;;;;4.47;1.80;;;;;;;23.66;56.83;102579.38;5035684;28;20032;-88
2021/07/18 08:16:26;;;;;;;8.55;1.75;;;;;;;23.66;56.36;102574.97;5019285;28;20029;-86
2021/07/18 08:18:55;;;;;;;4.18;1.90;;;;;;;23.53;54.91;102568.94;5035703;28;20040;-87
2021/07/18 08:21:20;;;;;;;5.82;2.00;;;;;;;23.53;56.54;102568.06;5052146;28;20024;-86
2021/07/18 08:23:49;;;;;;;4.93;1.80;;;;;;;23.68;57.16;102569.72;5019062;28;20029;-85
2021/07/18 08:26:17;;;;;;;5.97;2.03;;;;;;;23.64;55.50;102573.25;5052056;28;20087;-87
2021/07/18 08:28:43;;;;;;;4.95;1.83;;;;;;;23.58;57.35;102582.03;5052096;28;20036;-87
2021/07/18 08:31:08;;;;;;;4.45;1.90;;;;;;;23.60;53.85;102577.66;5019755;28;20029;-86
2021/07/18 08:33:33;;;;;;;5.03;1.73;;;;;;;23.71;55.94;102578.44;5052254;28;20182;-86
2021/07/18 08:35:59;;;;;;;5.07;1.70;;;;;;;23.68;55.54;102578.47;5035364;28;20037;-86
2021/07/18 08:38:24;;;;;;;5.57;1.80;;;;;;;23.59;55.40;102579.41;5035450;28;20036;-87
2021/07/18 08:40:50;;;;;;;4.70;2.00;;;;;;;23.57;54.34;102575.06;5035485;28;20025;-87
2021/07/18 08:43:17;;;;;;;4.22;1.85;;;;;;;23.50;54.69;102576.84;5053244;28;20017;-87
2021/07/18 08:45:42;;;;;;;4.57;1.80;;;;;;;23.49;53.51;102574.22;5052030;28;20059;-86
2021/07/18 08:48:08;;;;;;;5.18;1.90;;;;;;;23.51;55.15;102575.97;5019025;28;20479;-86
2021/07/18 08:50:35;;;;;;;3.67;1.60;;;;;;;23.59;55.11;102573.28;5035512;28;20061;-89
2021/07/18 08:53:01;;;;;;;3.35;1.80;;;;;;;23.59;55.87;102574.16;5052425;28;20059;-87
2021/07/18 08:55:27;;;;;;;5.20;1.70;;;;;;;23.51;54.69;102569.84;5052248;28;20108;-89
2021/07/18 08:57:53;;;;;;;5.65;1.90;;;;;;;23.49;54.91;102566.34;5019192;28;20129;-86
2021/07/18 09:00:22;;;;;;;5.30;2.00;;;;;;;23.61;54.40;102564.50;5052621;28;20433;-86
2021/07/18 09:02:47;;;;;;;8.90;2.00;;;;;;;23.60;55.99;102559.25;5056034;28;20063;-89
2021/07/18 09:05:13;;;;;;;6.90;1.95;;;;;;;23.60;55.21;102564.50;5023317;28;20060;-87
2021/07/18 09:07:49;;;;;;;5.80;2.17;;;;;;;23.58;58.36;102563.66;5039498;28;20025;-87
2021/07/18 09:10:20;;;;;;;4.28;1.85;;;;;;;23.74;56.93;102556.53;5057053;28;20052;-88
2021/07/18 09:13:07;;;;;;;7.32;2.20;;;;;;;23.61;58.00;102571.53;5055858;28;20016;-84
2021/07/18 09:15:44;;;;;;;9.63;2.15;;;;;;;23.51;59.98;102561.97;5055548;28;20021;-89
2021/07/18 09:18:22;;;;;;;5.60;2.15;;;;;;;23.41;62.55;102569.03;5055756;28;20472;-83
2021/07/18 09:20:52;;;;;;;5.75;2.08;;;;;;;23.31;63.08;102568.22;5055824;28;20032;-83
2021/07/18 09:23:20;;;;;;;5.93;2.00;;;;;;;23.27;62.99;102570.88;5038857;28;20048;-85
2021/07/18 09:25:47;;;;;;;6.63;2.47;;;;;;;23.23;63.97;102570.00;5055054;28;20041;-84
2021/07/18 09:28:20;;;;;;;6.53;2.35;;;;;;;23.04;59.53;102568.38;5055437;28;20084;-85
2021/07/18 09:30:50;;;;;;;4.78;2.33;;;;;;;23.15;63.95;102570.06;5055009;28;20028;-85
2021/07/18 09:33:29;;;;;;;6.82;2.50;;;;;;;23.16;63.52;102569.16;5055077;28;20029;-85
2021/07/18 09:36:12;;;;;;;4.60;2.10;;;;;;;23.13;60.98;102577.09;5022233;28;20079;-85
2021/07/18 09:38:38;;;;;;;5.03;2.13;;;;;;;23.12;63.47;102572.69;5055124;28;20080;-84
2021/07/18 09:41:04;;;;;;;6.97;2.40;;;;;;;23.04;61.58;102566.63;5055086;28;20127;-84
2021/07/18 09:43:57;;;;;;;6.57;2.25;;;;;;;23.06;63.88;102569.22;5038608;28;20502;-85
2021/07/18 09:46:30;;;;;;;4.28;2.58;;;;;;;23.03;63.94;102572.75;5054979;28;20029;-85
2021/07/18 09:49:09;;;;;;;;;;;;;;;23.04;64.52;102573.63;5055844;28;20021;-84
2021/07/18 09:51:36;;;;;;;5.75;2.60;;;;;;;22.94;60.90;102570.16;5055188;28;19908;-84
2021/07/18 09:54:11;;;;;;;4.68;2.50;;;;;;;22.95;63.45;102570.16;5055970;28;20494;-84
2021/07/18 09:56:37;;;;;;;6.68;2.50;;;;;;;22.97;63.58;102567.50;5054844;28;20074;-85
2021/07/18 09:59:03;;;;;;;4.97;2.10;;;;;;;22.94;61.49;102563.13;5054622;28;20455;-84
2021/07/18 10:01:29;;;;;;;6.65;2.28;;;;;;;23.03;63.92;102566.63;5021744;28;20029;-84
2021/07/18 10:03:55;;;;;;;7.03;2.40;;;;;;;23.07;64.01;102577.09;5054413;28;20033;-83
2021/07/18 10:06:32;;;;;;;4.55;2.40;;;;;;;23.08;64.33;102571.00;5038410;28;20032;-84
2021/07/18 10:08:59;;;;;;;7.20;2.38;;;;;;;23.11;64.18;102572.72;5071209;28;20029;-83
2021/07/18 10:11:28;;;;;;;4.25;2.13;;;;;;;22.99;62.86;102563.09;5054401;28;20028;-81
2021/07/18 10:13:56;;;;;;;4.35;2.33;;;;;;;22.96;65.04;102568.38;5054057;28;20135;-82
2021/07/18 10:16:25;;;;;;;4.07;2.28;;;;;;;22.95;65.71;102569.25;5054801;28;20087;-81
2021/07/18 10:18:52;;;;;;;3.83;2.10;;;;;;;22.96;64.23;102565.75;5054432;28;20125;-84
2021/07/18 10:21:21;;;;;;;7.07;2.65;;;;;;;23.00;64.11;102563.13;5043393;28;20059;-83
2021/07/18 10:23:49;;;;;;;4.70;2.50;;;;;;;22.94;62.10;102557.88;5062144;28;20082;-83
2021/07/18 10:26:20;;;;;;;7.25;2.35;;;;;;;22.98;61.11;102564.00;5056386;28;20049;-81
2021/07/18 10:28:47;;;;;;;4.88;2.65;;;;;;;22.95;60.93;102564.91;5057620;28;20040;-82
2021/07/18 10:31:31;;;;;;;4.80;2.72;;;;;;;22.99;63.22;102560.47;5056411;28;20055;-80
2021/07/18 10:33:58;;;;;;;8.38;2.53;;;;;;;23.02;64.02;102560.53;5054966;28;20510;-83
2021/07/18 10:36:25;;;;;;;5.85;2.83;;;;;;;22.98;64.39;102558.75;5055000;28;20132;-88
2021/07/18 10:38:50;;;;;;;5.10;2.65;;;;;;;22.98;64.12;102557.00;5054740;28;20020;-88
2021/07/18 10:41:16;;;;;;;5.55;2.20;;;;;;;22.95;63.87;102551.78;5054452;28;20033;-88
2021/07/18 10:43:47;;;;;;;4.32;2.60;;;;;;;23.00;63.66;102549.16;5054537;28;20439;-89
2021/07/18 10:46:15;;;;;;;5.97;2.40;;;;;;;23.01;63.39;102553.50;5037984;28;20021;-90
2021/07/18 10:48:52;;;;;;;3.97;2.50;;;;;;;22.99;64.10;102547.34;5054162;28;20083;-86
2021/07/18 10:51:34;;;;;;;4.03;2.13;;;;;;;23.03;62.91;102551.75;5037945;28;20028;-88
2021/07/18 10:54:09;;;;;;;5.75;2.60;;;;;;;23.02;62.68;102549.13;5054803;28;20021;-89
2021/07/18 10:56:45;;;;;;;4.68;2.08;;;;;;;23.00;62.59;102555.25;5055241;28;20033;-88
2021/07/18 10:59:34;;;;;;;4.07;2.25;;;;;;;23.02;62.24;102559.63;5055053;28;20078;-90
2021/07/18 11:02:12;;;;;;;3.80;1.95;;;;;;;22.96;59.27;102550.00;5037810;28;20031;-90
2021/07/18 11:04:39;;;;;;;4.25;1.80;;;;;;;22.94;59.54;102551.75;5056957;28;20025;-88
2021/07/18 11:07:19;;;;;;;6.05;2.10;;;;;;;23.02;61.44;102552.63;5059686;28;20517;-90
2021/07/18 11:09:50;;;;;;;3.20;1.90;;;;;;;23.01;60.44;102548.25;5059674;28;20032;-89
2021/07/18 11:12:31;;;;;;;4.38;2.10;;;;;;;23.03;60.82;102543.00;5059809;28;20448;-90
2021/07/18 11:15:12;;;;;;;3.80;2.05;;;;;;;23.01;60.62;102535.13;5055971;28;20021;-89
2021/07/18 11:18:06;;;;;;;4.00;2.15;;;;;;;23.05;61.28;102539.47;5054735;28;20029;-89
2021/07/18 11:20:42;;;;;;;3.10;2.00;;;;;;;23.05;60.93;102538.63;5054105;28;20048;-87
2021/07/18 11:23:09;;;;;;;7.82;2.13;;;;;;;23.03;61.06;102533.38;5053989;28;20036;-88
2021/07/18 11:25:41;;;;;;;3.60;2.20;;;;;;;23.05;61.03;102539.47;5052853;28;20087;-87